createdAt,value
2022-08-22T00:00:15.515Z,5.03
2022-08-22T00:02:49.197Z,2.90
2022-08-22T00:02:58.483Z,2.60
2022-08-22T00:03:15.031Z,4.70
2022-08-22T00:05:32.733Z,4.47
2022-08-22T00:08:11.931Z,4.40
2022-08-22T00:11:00.258Z,4.03
2022-08-22T00:13:39.181Z,4.20
2022-08-22T00:16:43.986Z,4.50
2022-08-22T00:19:21.314Z,5.00
2022-08-22T00:22:00.308Z,5.73
2022-08-22T00:24:30.446Z,4.80
2022-08-22T00:27:12.923Z,4.20
2022-08-22T00:29:54.883Z,4.30
2022-08-22T00:32:35.363Z,4.50
2022-08-22T00:35:18.250Z,3.87
2022-08-22T00:37:56.125Z,3.80
2022-08-22T00:40:58.563Z,4.30
2022-08-22T00:43:43.788Z,4.53
2022-08-22T00:46:48.701Z,4.17
2022-08-22T00:49:32.574Z,4.30
2022-08-22T00:52:11.618Z,5.37
2022-08-22T00:54:52.902Z,4.90
2022-08-22T00:57:45.267Z,5.37
2022-08-22T01:00:29.260Z,5.20
2022-08-22T01:03:45.180Z,5.00
2022-08-22T01:06:25.010Z,5.13
2022-08-22T01:09:02.334Z,5.07
2022-08-22T01:11:57.124Z,6.63
2022-08-22T01:14:34.682Z,5.60
2022-08-22T01:17:53.823Z,6.67
2022-08-22T01:20:51.571Z,5.70
2022-08-22T01:23:18.517Z,4.80
2022-08-22T01:26:03.981Z,5.07
2022-08-22T01:28:55.966Z,5.57
2022-08-22T01:31:42.524Z,5.57
2022-08-22T01:34:23.497Z,5.17
2022-08-22T01:37:21.363Z,4.90
2022-08-22T01:40:00.452Z,4.47
2022-08-22T01:42:50.580Z,4.57
2022-08-22T01:45:53.810Z,5.40
2022-08-22T01:48:31.191Z,4.50
2022-08-22T01:51:12.935Z,3.90
2022-08-22T01:54:04.843Z,4.43
2022-08-22T01:56:36.231Z,4.07
2022-08-22T01:59:10.957Z,5.60
2022-08-22T02:02:00.514Z,4.33
2022-08-22T02:04:30.574Z,4.13
2022-08-22T02:07:14.153Z,4.47
2022-08-22T02:09:53.448Z,4.83
2022-08-22T02:12:23.564Z,3.73
2022-08-22T02:15:16.456Z,4.57
2022-08-22T02:18:06.837Z,4.03
2022-08-22T02:20:40.595Z,3.77
2022-08-22T02:23:23.387Z,4.00
2022-08-22T02:26:02.397Z,4.07
2022-08-22T02:28:35.498Z,4.30
2022-08-22T02:31:11.891Z,4.90
2022-08-22T02:33:53.797Z,5.03
2022-08-22T02:36:45.310Z,4.43
2022-08-22T02:39:27.391Z,5.40
2022-08-22T02:42:28.601Z,5.27
2022-08-22T02:45:04.209Z,5.53
2022-08-22T02:47:46.745Z,4.83
2022-08-22T02:50:33.154Z,4.27
2022-08-22T02:53:31.438Z,4.23
2022-08-22T02:56:20.164Z,4.80
2022-08-22T02:59:11.573Z,4.63
2022-08-22T03:01:45.117Z,4.73
2022-08-22T03:04:18.296Z,4.30
2022-08-22T03:07:08.801Z,4.50
2022-08-22T03:10:03.688Z,4.90
2022-08-22T03:12:45.689Z,3.97
2022-08-22T03:15:18.629Z,5.10
2022-08-22T03:17:58.672Z,4.40
2022-08-22T03:20:54.349Z,4.67
2022-08-22T03:23:48.995Z,4.33
2022-08-22T03:26:38.032Z,4.00
2022-08-22T03:29:23.733Z,4.57
2022-08-22T03:32:12.423Z,4.20
2022-08-22T03:34:59.867Z,5.20
2022-08-22T03:37:48.202Z,4.67
2022-08-22T03:40:21.628Z,5.50
2022-08-22T03:43:13.067Z,4.57
2022-08-22T03:46:12.504Z,4.90
2022-08-22T03:48:48.503Z,4.63
2022-08-22T03:51:32.931Z,4.10
2022-08-22T03:54:30.495Z,5.00
2022-08-22T03:57:18.556Z,5.50
2022-08-22T04:00:23.216Z,4.67
2022-08-22T04:03:25.795Z,5.00
2022-08-22T04:06:17.112Z,5.30
2022-08-22T04:09:04.714Z,5.87
2022-08-22T04:11:39.255Z,4.80
2022-08-22T04:14:33.164Z,5.30
2022-08-22T04:17:29.897Z,4.87
2022-08-22T04:20:09.766Z,5.23
2022-08-22T04:22:58.511Z,4.97
2022-08-22T04:25:39.010Z,4.77
2022-08-22T04:28:24.414Z,4.43
2022-08-22T04:31:12.118Z,4.70
2022-08-22T04:33:54.014Z,4.67
2022-08-22T04:36:50.651Z,4.67
2022-08-22T04:39:40.973Z,4.93
2022-08-22T04:42:33.227Z,4.63
2022-08-22T04:45:12.677Z,4.70
2022-08-22T04:47:55.506Z,4.50
2022-08-22T04:50:45.755Z,5.03
2022-08-22T04:53:49.848Z,4.30
2022-08-22T04:56:45.132Z,4.20
2022-08-22T04:59:16.518Z,4.83
2022-08-22T05:01:55.034Z,4.43
2022-08-22T05:04:36.073Z,5.90
2022-08-22T05:07:08.178Z,5.00
2022-08-22T05:09:38.970Z,4.30
2022-08-22T05:12:11.958Z,4.17
2022-08-22T05:14:47.186Z,5.13
2022-08-22T05:17:21.571Z,5.10
2022-08-22T05:19:53.796Z,3.70
2022-08-22T05:22:47.264Z,4.50
2022-08-22T05:25:21.431Z,4.00
2022-08-22T05:27:56.450Z,4.23
2022-08-22T05:30:27.891Z,4.90
2022-08-22T05:33:27.387Z,5.27
2022-08-22T05:36:04.275Z,4.27
2022-08-22T05:38:34.788Z,6.20
2022-08-22T05:41:18.046Z,4.70
2022-08-22T05:43:47.471Z,4.87
2022-08-22T05:46:36.163Z,5.97
2022-08-22T05:49:05.956Z,5.00
2022-08-22T05:51:53.688Z,5.17
2022-08-22T05:54:34.443Z,4.43
2022-08-22T05:57:24.031Z,4.53
2022-08-22T06:00:00.689Z,3.87
2022-08-22T06:03:01.750Z,3.70
2022-08-22T06:05:33.516Z,4.97
2022-08-22T06:08:12.021Z,4.77
2022-08-22T06:10:48.217Z,6.17
2022-08-22T06:13:24.721Z,5.83
2022-08-22T06:16:05.765Z,5.20
2022-08-22T06:18:33.593Z,6.00
2022-08-22T06:21:04.615Z,5.87
2022-08-22T06:23:46.704Z,5.37
2022-08-22T06:26:21.229Z,6.07
2022-08-22T06:28:54.635Z,6.27
2022-08-22T06:31:38.258Z,7.80
2022-08-22T06:34:17.596Z,6.30
2022-08-22T06:36:48.752Z,5.93
2022-08-22T06:39:37.886Z,5.50
2022-08-22T06:42:17.211Z,6.83
2022-08-22T06:45:00.926Z,7.13
2022-08-22T06:47:37.654Z,5.60
2022-08-22T06:50:20.389Z,4.80
2022-08-22T06:53:13.187Z,6.07
2022-08-22T06:55:43.575Z,5.70
2022-08-22T06:58:26.277Z,5.73
2022-08-22T07:01:11.385Z,6.90
2022-08-22T07:03:45.088Z,6.60
2022-08-22T07:06:18.453Z,5.97
2022-08-22T07:08:46.017Z,6.07
2022-08-22T07:11:32.542Z,5.90
2022-08-22T07:14:15.679Z,6.27
2022-08-22T07:16:44.320Z,5.80
2022-08-22T07:19:28.295Z,6.53
2022-08-22T07:21:57.318Z,6.00
2022-08-22T07:24:29.429Z,5.83
2022-08-22T07:27:24.221Z,5.73
2022-08-22T07:30:14.167Z,6.20
2022-08-22T07:33:29.430Z,5.83
2022-08-22T07:36:01.826Z,5.93
2022-08-22T07:38:47.200Z,6.20
2022-08-22T07:41:22.839Z,7.23
2022-08-22T07:44:00.752Z,5.97
2022-08-22T07:47:01.097Z,5.80
2022-08-22T07:49:37.383Z,5.70
2022-08-22T07:52:12.052Z,6.10
2022-08-22T07:54:52.568Z,4.50
2022-08-22T07:57:39.347Z,4.87
2022-08-22T08:00:14.032Z,5.37
2022-08-22T08:02:59.004Z,5.50
2022-08-22T08:05:29.901Z,5.27
2022-08-22T08:07:57.633Z,4.30
2022-08-22T08:10:32.965Z,4.80
2022-08-22T08:13:04.902Z,4.80
2022-08-22T08:15:35.845Z,4.63
2022-08-22T08:18:08.515Z,4.77
2022-08-22T08:20:37.601Z,5.60
2022-08-22T08:23:08.797Z,4.33
2022-08-22T08:26:00.567Z,4.40
2022-08-22T08:28:34.256Z,4.17
2022-08-22T08:31:11.315Z,5.20
2022-08-22T08:33:42.060Z,4.33
2022-08-22T08:36:25.134Z,5.20
2022-08-22T08:39:24.432Z,5.17
2022-08-22T08:42:00.231Z,5.60
2022-08-22T08:44:57.040Z,3.97
2022-08-22T08:47:56.735Z,5.03
2022-08-22T08:50:44.371Z,4.87
2022-08-22T08:53:43.213Z,4.53
2022-08-22T08:56:33.144Z,5.43
2022-08-22T08:59:21.584Z,4.00
2022-08-22T09:02:26.556Z,4.67
2022-08-22T09:05:12.536Z,4.40
2022-08-22T09:07:49.619Z,3.60
2022-08-22T09:10:34.991Z,4.27
2022-08-22T09:13:26.705Z,3.70
2022-08-22T09:16:04.977Z,4.00
2022-08-22T09:18:32.483Z,2.37
2022-08-22T09:24:15.017Z,2.00
2022-08-22T09:30:12.358Z,1.70
2022-08-22T09:33:24.571Z,1.67
2022-08-22T09:36:05.337Z,2.10
2022-08-22T09:38:50.745Z,2.13
2022-08-22T09:40:16.395Z,2.80
2022-08-22T09:40:16.631Z,2.80
2022-08-22T09:41:44.565Z,1.93
2022-08-22T09:44:50.007Z,1.60
2022-08-22T09:47:33.214Z,1.90
2022-08-22T09:50:10.352Z,1.67
2022-08-22T09:52:55.814Z,2.20
2022-08-22T09:55:35.354Z,2.77
2022-08-22T09:58:46.593Z,1.43
2022-08-22T10:01:32.862Z,1.80
2022-08-22T10:04:42.598Z,1.90
2022-08-22T10:07:32.463Z,1.70
2022-08-22T10:10:26.315Z,1.63
2022-08-22T10:13:12.184Z,2.13
2022-08-22T10:15:46.066Z,1.53
2022-08-22T10:18:52.483Z,1.63
2022-08-22T10:21:59.477Z,1.90
2022-08-22T10:24:45.811Z,1.63
2022-08-22T10:27:41.262Z,1.67
2022-08-22T10:30:28.730Z,1.43
2022-08-22T10:33:05.325Z,2.10
2022-08-22T10:36:00.582Z,1.70
2022-08-22T10:38:46.631Z,1.73
2022-08-22T10:41:36.799Z,1.70
2022-08-22T10:44:21.820Z,2.00
2022-08-22T10:47:19.074Z,1.60
2022-08-22T10:50:03.121Z,1.80
2022-08-22T10:52:50.518Z,1.70
2022-08-22T10:55:28.900Z,1.43
2022-08-22T10:58:13.389Z,1.50
2022-08-22T11:01:01.610Z,1.80
2022-08-22T11:04:02.855Z,2.10
2022-08-22T11:06:46.417Z,1.53
2022-08-22T11:09:25.414Z,1.90
2022-08-22T11:12:18.411Z,1.93
2022-08-22T11:15:12.099Z,1.70
2022-08-22T11:18:13.034Z,2.60
2022-08-22T11:21:01.792Z,2.40
2022-08-22T11:23:48.710Z,1.50
2022-08-22T11:26:30.076Z,2.20
2022-08-22T11:29:19.262Z,2.53
2022-08-22T11:32:05.827Z,1.90
2022-08-22T11:34:56.695Z,1.87
2022-08-22T11:37:40.334Z,1.90
2022-08-22T11:40:41.810Z,1.60
2022-08-22T11:43:45.680Z,1.70
2022-08-22T11:46:35.420Z,2.27
2022-08-22T11:49:14.307Z,1.77
2022-08-22T11:52:17.768Z,1.90
2022-08-22T11:55:10.080Z,1.60
2022-08-22T11:57:44.766Z,1.50
2022-08-22T12:00:21.346Z,1.70
2022-08-22T12:03:01.425Z,1.90
2022-08-22T12:05:55.040Z,1.87
2022-08-22T12:08:46.259Z,1.60
2022-08-22T12:11:36.273Z,2.43
2022-08-22T12:14:11.427Z,1.43
2022-08-22T12:17:01.067Z,1.57
2022-08-22T12:19:28.127Z,2.40
2022-08-22T12:22:31.085Z,2.33
2022-08-22T12:25:19.709Z,1.70
2022-08-22T12:27:58.947Z,1.80
2022-08-22T12:31:01.059Z,2.20
2022-08-22T12:33:46.468Z,1.90
2022-08-22T12:36:53.608Z,1.80
2022-08-22T12:39:41.059Z,2.47
2022-08-22T12:42:08.490Z,2.33
2022-08-22T12:44:57.282Z,1.90
2022-08-22T12:48:00.494Z,2.43
2022-08-22T12:50:43.800Z,1.70
2022-08-22T12:53:48.631Z,1.70
2022-08-22T12:56:41.134Z,2.13
2022-08-22T12:59:30.137Z,1.77
2022-08-22T13:02:02.639Z,2.03
2022-08-22T13:04:34.375Z,2.23
2022-08-22T13:07:09.489Z,1.70
2022-08-22T13:09:43.188Z,1.20
2022-08-22T13:12:28.266Z,2.37
2022-08-22T13:15:26.695Z,1.83
2022-08-22T13:17:55.532Z,1.90
2022-08-22T13:20:43.387Z,1.80
2022-08-22T13:23:20.589Z,1.60
2022-08-22T13:25:56.762Z,1.80
2022-08-22T13:28:25.356Z,1.50
2022-08-22T13:30:55.683Z,2.67
2022-08-22T13:33:32.336Z,2.30
2022-08-22T13:36:05.311Z,2.60
2022-08-22T13:38:52.294Z,2.20
2022-08-22T13:41:29.822Z,2.40
2022-08-22T13:44:08.757Z,2.20
2022-08-22T13:46:52.771Z,2.20
2022-08-22T13:49:41.387Z,1.97
2022-08-22T13:52:30.941Z,1.80
2022-08-22T13:55:20.026Z,1.80
2022-08-22T13:57:52.365Z,2.13
2022-08-22T14:00:25.401Z,1.87
2022-08-22T14:03:18.143Z,2.10
2022-08-22T14:05:53.130Z,1.53
2022-08-22T14:08:25.699Z,2.47
2022-08-22T14:11:21.775Z,1.83
2022-08-22T14:13:59.437Z,2.63
2022-08-22T14:16:28.538Z,2.60
2022-08-22T14:19:00.723Z,2.07
2022-08-22T14:21:51.820Z,2.60
2022-08-22T14:24:59.690Z,2.20
2022-08-22T14:27:39.708Z,1.77
2022-08-22T14:30:13.168Z,2.20
2022-08-22T14:33:02.222Z,2.33
2022-08-22T14:35:37.879Z,2.20
2022-08-22T14:38:37.634Z,2.13
2022-08-22T14:41:14.537Z,2.20
2022-08-22T14:43:59.194Z,1.90
2022-08-22T14:46:42.679Z,2.30
2022-08-22T14:49:14.678Z,2.50
2022-08-22T14:51:51.258Z,1.70
2022-08-22T14:54:22.273Z,2.50
2022-08-22T14:56:51.797Z,1.80
2022-08-22T14:59:43.073Z,1.63
2022-08-22T15:02:27.844Z,2.27
2022-08-22T15:04:56.653Z,1.83
2022-08-22T15:07:27.449Z,2.33
2022-08-22T15:10:03.097Z,2.20
2022-08-22T15:12:40.355Z,1.20
2022-08-22T15:15:14.957Z,1.67
2022-08-22T15:17:45.164Z,1.50
2022-08-22T15:20:22.769Z,2.00
2022-08-22T15:22:59.324Z,1.50
2022-08-22T15:25:32.125Z,1.53
2022-08-22T15:28:20.002Z,1.40
2022-08-22T15:31:09.372Z,2.23
2022-08-22T15:33:39.666Z,1.90
2022-08-22T15:36:20.179Z,2.27
2022-08-22T15:39:16.919Z,2.20
2022-08-22T15:41:47.625Z,1.83
2022-08-22T15:44:32.135Z,2.10
2022-08-22T15:47:00.194Z,2.23
2022-08-22T15:49:35.881Z,1.97
2022-08-22T15:52:02.866Z,2.43
2022-08-22T15:54:54.139Z,2.23
2022-08-22T15:57:40.401Z,2.40
2022-08-22T16:00:19.512Z,2.40
2022-08-22T16:03:11.199Z,2.40
2022-08-22T16:05:55.501Z,2.50
2022-08-22T16:08:32.684Z,2.17
2022-08-22T16:11:03.487Z,1.93
2022-08-22T16:13:30.513Z,2.00
2022-08-22T16:16:03.573Z,1.77
2022-08-22T16:18:33.786Z,2.53
2022-08-22T16:21:02.307Z,1.73
2022-08-22T16:23:49.710Z,2.17
2022-08-22T16:26:39.705Z,2.20
2022-08-22T16:29:17.990Z,2.10
2022-08-22T16:31:47.961Z,1.83
2022-08-22T16:34:18.065Z,2.03
2022-08-22T16:36:54.742Z,2.33
2022-08-22T16:39:21.862Z,1.57
2022-08-22T16:42:13.605Z,2.03
2022-08-22T16:44:46.670Z,2.53
2022-08-22T16:47:21.440Z,2.00
2022-08-22T16:49:51.851Z,2.67
2022-08-22T16:52:24.966Z,1.57
2022-08-22T16:55:25.961Z,2.00
2022-08-22T16:58:10.786Z,1.30
2022-08-22T17:00:41.296Z,1.50
2022-08-22T17:03:25.658Z,1.87
2022-08-22T17:06:41.488Z,2.37
2022-08-22T17:09:33.518Z,1.80
2022-08-22T17:12:31.133Z,1.90
2022-08-22T17:15:21.224Z,2.37
2022-08-22T17:18:12.184Z,1.57
2022-08-22T17:20:45.630Z,2.00
2022-08-22T17:23:31.092Z,2.40
2022-08-22T17:26:10.753Z,1.67
2022-08-22T17:29:01.806Z,1.70
2022-08-22T17:31:57.944Z,2.47
2022-08-22T17:34:37.124Z,2.23
2022-08-22T17:37:22.066Z,2.27
2022-08-22T17:40:09.211Z,2.43
2022-08-22T17:42:46.166Z,2.03
2022-08-22T17:45:31.334Z,2.23
2022-08-22T17:48:50.253Z,1.90
2022-08-22T17:51:47.700Z,2.43
2022-08-22T17:54:45.121Z,2.30
2022-08-22T17:57:33.152Z,2.20
2022-08-22T18:00:10.954Z,1.87
2022-08-22T18:02:41.525Z,2.27
2022-08-22T18:05:20.485Z,2.20
2022-08-22T18:07:59.461Z,2.10
2022-08-22T18:10:49.466Z,3.10
2022-08-22T18:13:54.226Z,2.60
2022-08-22T18:16:44.396Z,2.00
2022-08-22T18:19:23.675Z,2.87
2022-08-22T18:21:56.167Z,3.90
2022-08-22T18:24:46.515Z,3.13
2022-08-22T18:27:34.235Z,2.30
2022-08-22T18:30:25.114Z,2.40
2022-08-22T18:33:11.546Z,4.83
2022-08-22T18:35:49.906Z,3.33
2022-08-22T18:38:49.504Z,3.03
2022-08-22T18:41:27.519Z,2.93
2022-08-22T18:43:55.633Z,2.83
2022-08-22T18:46:42.975Z,3.30
2022-08-22T18:49:37.366Z,3.20
2022-08-22T18:52:15.975Z,2.20
2022-08-22T18:55:01.470Z,2.27
2022-08-22T18:57:40.392Z,2.70
2022-08-22T19:00:45.551Z,2.50
2022-08-22T19:03:32.356Z,1.80
2022-08-22T19:06:18.163Z,2.07
2022-08-22T19:09:07.333Z,3.27
2022-08-22T19:11:54.708Z,2.80
2022-08-22T19:14:52.978Z,2.50
2022-08-22T19:17:37.747Z,1.80
2022-08-22T19:20:56.448Z,4.20
2022-08-22T19:23:32.832Z,1.83
2022-08-22T19:26:28.650Z,2.90
2022-08-22T19:29:10.779Z,2.23
2022-08-22T19:31:44.233Z,1.90
2022-08-22T19:34:29.377Z,2.00
2022-08-22T19:37:30.434Z,1.60
2022-08-22T19:40:10.693Z,2.07
2022-08-22T19:42:41.622Z,1.70
2022-08-22T19:45:25.710Z,2.23
2022-08-22T19:48:13.732Z,2.03
2022-08-22T19:50:43.384Z,2.13
2022-08-22T19:53:20.686Z,4.07
2022-08-22T19:56:17.576Z,2.40
2022-08-22T19:59:02.096Z,1.80
2022-08-22T20:01:34.037Z,2.60
2022-08-22T20:04:24.061Z,2.27
2022-08-22T20:07:14.653Z,1.90
2022-08-22T20:10:04.640Z,2.00
2022-08-22T20:13:31.279Z,2.50
2022-08-22T20:16:20.080Z,3.57
2022-08-22T20:19:09.493Z,4.47
2022-08-22T20:21:55.226Z,3.17
2022-08-22T20:24:29.806Z,5.97
2022-08-22T20:27:15.633Z,2.20
2022-08-22T20:29:52.024Z,4.30
2022-08-22T20:32:21.536Z,2.90
2022-08-22T20:34:54.373Z,2.50
2022-08-22T20:37:40.197Z,2.40
2022-08-22T20:40:54.801Z,2.90
2022-08-22T20:43:28.278Z,2.40
2022-08-22T20:46:12.599Z,2.90
2022-08-22T20:48:43.676Z,9.00
2022-08-22T20:51:15.576Z,5.30
2022-08-22T20:53:50.400Z,7.23
2022-08-22T20:56:30.817Z,3.77
2022-08-22T20:59:01.004Z,2.47
2022-08-22T21:01:29.146Z,2.83
2022-08-22T21:03:57.961Z,2.10
2022-08-22T21:06:35.015Z,5.73
2022-08-22T21:09:37.182Z,2.70
2022-08-22T21:12:09.105Z,2.90
2022-08-22T21:14:44.586Z,2.40
2022-08-22T21:20:22.201Z,3.73
2022-08-22T21:22:51.492Z,4.13
2022-08-22T21:25:18.615Z,3.60
2022-08-22T21:27:48.635Z,4.80
2022-08-22T21:30:23.542Z,4.33
2022-08-22T21:32:55.683Z,4.70
2022-08-22T21:35:31.510Z,3.60
2022-08-22T21:38:00.375Z,4.10
2022-08-22T21:43:54.100Z,4.17
2022-08-22T21:46:28.940Z,3.40
2022-08-22T21:49:05.291Z,6.27
2022-08-22T21:51:45.992Z,4.73
2022-08-22T21:54:28.218Z,5.17
2022-08-22T21:56:58.746Z,5.73
2022-08-22T21:59:51.904Z,4.67
2022-08-22T22:02:37.394Z,5.67
2022-08-22T22:05:14.710Z,6.43
2022-08-22T22:07:44.079Z,4.67
2022-08-22T22:10:13.628Z,5.10
2022-08-22T22:12:42.842Z,6.20
2022-08-22T22:15:16.426Z,5.90
2022-08-22T22:17:43.536Z,4.90
2022-08-22T22:20:11.872Z,4.63
2022-08-22T22:22:45.915Z,4.90
2022-08-22T22:25:41.067Z,5.87
2022-08-22T22:28:08.830Z,6.20
2022-08-22T22:30:36.541Z,6.27
2022-08-22T22:33:03.563Z,6.13
2022-08-22T22:35:31.688Z,5.33
2022-08-22T22:37:58.845Z,5.17
2022-08-22T22:40:26.229Z,4.43
2022-08-22T22:42:53.306Z,4.77
2022-08-22T22:45:20.371Z,5.60
2022-08-22T22:47:47.396Z,5.83
2022-08-22T22:50:14.544Z,6.37
2022-08-22T22:52:41.794Z,5.70
2022-08-22T22:55:09.915Z,6.47
2022-08-22T22:57:46.860Z,6.53
2022-08-22T23:00:14.868Z,6.97
2022-08-22T23:02:42.145Z,7.47
2022-08-22T23:05:11.163Z,6.87
2022-08-22T23:07:38.952Z,6.40
2022-08-22T23:10:08.478Z,7.00
2022-08-22T23:12:37.762Z,6.93
2022-08-22T23:15:07.505Z,6.73
2022-08-22T23:17:35.338Z,6.63
2022-08-22T23:20:03.229Z,7.20
2022-08-22T23:22:30.838Z,7.67
2022-08-22T23:24:58.022Z,7.60
2022-08-22T23:27:25.204Z,8.27
2022-08-22T23:29:52.628Z,6.77
2022-08-22T23:32:19.810Z,7.90
2022-08-22T23:34:48.782Z,8.10
2022-08-22T23:37:18.853Z,7.80
2022-08-22T23:39:46.399Z,6.50
2022-08-22T23:42:15.078Z,6.53
2022-08-22T23:44:45.111Z,8.03
2022-08-22T23:47:12.986Z,7.40
2022-08-22T23:49:41.963Z,7.17
2022-08-22T23:52:11.125Z,7.10
2022-08-22T23:54:38.631Z,8.07
2022-08-22T23:57:11.997Z,7.37
2022-08-22T23:59:46.532Z,7.60
